createdAt,value
2022-12-17T00:01:07.499Z,20.60
2022-12-17T00:03:53.622Z,20.90
2022-12-17T00:06:42.233Z,21.00
2022-12-17T00:09:27.539Z,20.90
2022-12-17T00:12:12.997Z,19.00
2022-12-17T00:14:58.447Z,19.90
2022-12-17T00:17:43.996Z,22.80
2022-12-17T00:20:29.515Z,21.60
2022-12-17T00:23:40.550Z,20.70
2022-12-17T00:26:26.701Z,19.20
2022-12-17T00:29:12.319Z,19.60
2022-12-17T00:31:57.900Z,20.90
2022-12-17T00:34:43.496Z,23.80
2022-12-17T00:37:29.169Z,20.80
2022-12-17T00:40:14.925Z,21.20
2022-12-17T00:43:00.624Z,21.30
2022-12-17T00:45:46.091Z,21.90
2022-12-17T00:48:31.660Z,21.30
2022-12-17T00:51:17.099Z,21.10
2022-12-17T00:54:03.846Z,21.20
2022-12-17T00:56:49.545Z,22.40
2022-12-17T00:59:34.915Z,22.70
2022-12-17T01:02:20.379Z,23.80
2022-12-17T01:05:05.842Z,20.70
2022-12-17T01:07:52.429Z,22.50
2022-12-17T01:10:37.950Z,23.60
2022-12-17T01:13:23.448Z,24.50
2022-12-17T01:16:09.920Z,22.20
2022-12-17T01:18:55.436Z,21.90
2022-12-17T01:21:41.676Z,23.40
2022-12-17T01:24:27.093Z,23.40
2022-12-17T01:27:12.511Z,20.40
2022-12-17T01:29:58.041Z,20.50
2022-12-17T01:32:43.549Z,19.90
2022-12-17T01:35:29.069Z,20.30
2022-12-17T01:38:17.006Z,20.70
2022-12-17T01:41:02.937Z,20.50
2022-12-17T01:43:53.231Z,19.80
2022-12-17T01:46:39.849Z,21.40
2022-12-17T01:49:27.397Z,21.00
2022-12-17T01:52:14.148Z,22.20
2022-12-17T01:54:59.787Z,21.10
2022-12-17T01:57:45.576Z,20.40
2022-12-17T02:00:34.061Z,19.60
2022-12-17T02:03:20.022Z,20.10
2022-12-17T02:06:15.303Z,20.30
2022-12-17T02:09:14.136Z,18.30
2022-12-17T02:12:18.220Z,19.90
2022-12-17T02:15:08.461Z,21.50
2022-12-17T02:18:05.954Z,18.00
2022-12-17T02:20:58.670Z,19.80
2022-12-17T02:23:44.306Z,20.30
2022-12-17T02:26:39.353Z,18.70
2022-12-17T02:29:26.223Z,16.70
2022-12-17T02:32:12.741Z,19.00
2022-12-17T02:35:04.045Z,19.30
2022-12-17T02:37:50.078Z,19.70
2022-12-17T02:40:38.342Z,20.90
2022-12-17T02:43:25.993Z,18.40
2022-12-17T02:46:12.794Z,21.40
2022-12-17T02:48:58.249Z,17.50
2022-12-17T02:51:45.445Z,20.00
2022-12-17T02:54:31.013Z,20.10
2022-12-17T02:57:16.442Z,19.50
2022-12-17T03:00:03.443Z,19.00
2022-12-17T03:02:49.975Z,23.80
2022-12-17T03:05:44.860Z,22.20
2022-12-17T03:08:31.951Z,18.80
2022-12-17T03:11:17.309Z,19.90
2022-12-17T03:14:19.541Z,19.20
2022-12-17T03:17:05.195Z,19.70
2022-12-17T03:19:50.681Z,21.00
2022-12-17T03:22:36.318Z,19.20
2022-12-17T03:25:21.885Z,20.70
2022-12-17T03:28:07.426Z,20.70
2022-12-17T03:30:53.420Z,21.10
2022-12-17T03:33:39.313Z,20.30
2022-12-17T03:36:25.534Z,20.70
2022-12-17T03:39:11.741Z,19.00
2022-12-17T03:41:57.919Z,21.80
2022-12-17T03:44:43.809Z,20.70
2022-12-17T03:47:29.585Z,20.40
2022-12-17T03:50:15.113Z,19.80
2022-12-17T03:53:00.918Z,19.90
2022-12-17T03:55:46.481Z,22.50
2022-12-17T03:58:39.048Z,19.80
2022-12-17T04:01:25.186Z,19.30
2022-12-17T04:04:10.533Z,20.10
2022-12-17T04:06:56.022Z,20.20
2022-12-17T04:09:41.243Z,18.70
2022-12-17T04:12:26.780Z,18.80
2022-12-17T04:15:12.354Z,18.70
2022-12-17T04:17:57.878Z,19.00
2022-12-17T04:20:43.556Z,20.90
2022-12-17T04:23:28.996Z,20.00
2022-12-17T04:26:14.466Z,20.00
2022-12-17T04:29:10.627Z,20.10
2022-12-17T04:31:55.938Z,20.40
2022-12-17T04:34:41.377Z,19.60
2022-12-17T04:37:26.915Z,21.10
2022-12-17T04:40:12.293Z,19.00
2022-12-17T04:42:57.614Z,19.70
2022-12-17T04:45:43.151Z,19.20
2022-12-17T04:48:28.860Z,23.20
2022-12-17T04:51:14.419Z,23.50
2022-12-17T04:53:59.747Z,19.50
2022-12-17T04:56:44.986Z,20.50
2022-12-17T04:59:30.314Z,20.90
2022-12-17T05:02:15.638Z,23.70
2022-12-17T05:05:01.272Z,21.30
2022-12-17T05:07:47.083Z,23.90
2022-12-17T05:10:32.599Z,22.30
2022-12-17T05:13:19.788Z,22.60
2022-12-17T05:16:05.675Z,23.40
2022-12-17T05:18:51.026Z,23.50
2022-12-17T05:21:36.614Z,20.40
2022-12-17T05:24:22.173Z,19.20
2022-12-17T05:27:07.771Z,20.50
2022-12-17T05:29:53.522Z,20.60
2022-12-17T05:32:38.919Z,18.90
2022-12-17T05:35:24.757Z,16.20
2022-12-17T05:38:10.106Z,17.70
2022-12-17T05:40:55.516Z,18.30
2022-12-17T05:43:41.024Z,18.30
2022-12-17T05:46:26.626Z,18.90
2022-12-17T05:49:12.231Z,18.50
2022-12-17T05:51:57.735Z,19.00
2022-12-17T05:54:43.209Z,23.00
2022-12-17T05:57:28.698Z,22.00
2022-12-17T06:00:14.307Z,24.10
2022-12-17T06:02:59.961Z,26.00
2022-12-17T06:05:45.367Z,26.00
2022-12-17T06:08:31.118Z,22.60
2022-12-17T06:11:18.313Z,21.80
2022-12-17T06:14:04.876Z,20.70
2022-12-17T06:16:50.649Z,21.00
2022-12-17T06:19:36.288Z,22.00
2022-12-17T06:22:21.665Z,24.10
2022-12-17T06:25:06.794Z,21.10
2022-12-17T06:27:52.393Z,20.90
2022-12-17T06:30:38.292Z,21.00
2022-12-17T06:33:29.040Z,24.70
2022-12-17T06:36:22.074Z,27.20
2022-12-17T06:39:08.625Z,26.40
2022-12-17T06:42:00.519Z,24.20
2022-12-17T06:44:50.095Z,21.40
2022-12-17T06:47:35.352Z,19.90
2022-12-17T06:50:20.661Z,18.30
2022-12-17T06:53:06.170Z,19.30
2022-12-17T06:55:51.640Z,21.70
2022-12-17T06:58:37.199Z,18.50
2022-12-17T07:01:22.621Z,16.20
2022-12-17T07:04:07.895Z,16.60
2022-12-17T07:07:10.772Z,16.70
2022-12-17T07:09:57.199Z,16.70
2022-12-17T07:12:42.758Z,17.00
2022-12-17T07:15:28.872Z,16.30
2022-12-17T07:18:16.267Z,16.10
2022-12-17T07:21:02.024Z,17.20
2022-12-17T07:23:47.997Z,17.40
2022-12-17T07:26:33.995Z,16.00
2022-12-17T07:29:19.444Z,16.00
2022-12-17T07:32:05.020Z,14.60
2022-12-17T07:34:50.321Z,16.20
2022-12-17T07:37:35.702Z,14.50
2022-12-17T07:40:22.540Z,16.00
2022-12-17T07:43:08.068Z,13.80
2022-12-17T07:45:53.644Z,16.10
2022-12-17T07:48:39.118Z,15.30
2022-12-17T07:51:24.596Z,15.60
2022-12-17T07:54:10.032Z,17.60
2022-12-17T07:56:56.031Z,13.80
2022-12-17T07:59:41.529Z,14.90
2022-12-17T08:02:28.992Z,13.90
2022-12-17T08:05:14.636Z,15.50
2022-12-17T08:08:00.056Z,15.80
2022-12-17T08:10:45.475Z,14.70
2022-12-17T08:13:31.012Z,16.30
2022-12-17T08:16:16.655Z,15.60
2022-12-17T08:19:02.331Z,15.60
2022-12-17T08:21:47.829Z,17.20
2022-12-17T08:24:33.357Z,16.00
2022-12-17T08:27:18.941Z,16.40
2022-12-17T08:30:04.427Z,18.00
2022-12-17T08:32:50.054Z,17.30
2022-12-17T08:35:35.633Z,18.60
2022-12-17T08:38:22.257Z,19.60
2022-12-17T08:41:07.970Z,17.30
2022-12-17T08:43:54.130Z,19.50
2022-12-17T08:46:39.728Z,14.90
2022-12-17T08:49:25.608Z,17.00
2022-12-17T08:52:10.874Z,18.70
2022-12-17T08:54:56.404Z,19.90
2022-12-17T08:57:41.527Z,16.40
2022-12-17T09:00:27.999Z,20.00
2022-12-17T09:03:20.769Z,17.30
2022-12-17T09:06:06.665Z,21.70
2022-12-17T09:08:52.044Z,20.20
2022-12-17T09:11:37.362Z,19.30
2022-12-17T09:14:22.871Z,16.10
2022-12-17T09:17:08.475Z,17.50
2022-12-17T09:19:54.080Z,15.80
2022-12-17T09:22:39.436Z,16.40
2022-12-17T09:25:25.305Z,16.70
2022-12-17T09:28:10.698Z,16.10
2022-12-17T09:30:56.032Z,19.80
2022-12-17T09:33:42.242Z,18.00
2022-12-17T09:36:27.821Z,16.90
2022-12-17T09:39:13.406Z,18.00
2022-12-17T09:41:58.867Z,17.30
2022-12-17T09:44:51.523Z,15.60
2022-12-17T09:47:55.405Z,17.00
2022-12-17T09:50:41.502Z,16.60
2022-12-17T09:53:56.009Z,15.60
2022-12-17T09:56:44.963Z,18.70
2022-12-17T09:59:38.929Z,18.30
2022-12-17T10:02:44.958Z,18.30
2022-12-17T10:05:39.590Z,20.30
2022-12-17T10:08:25.873Z,18.30
2022-12-17T10:11:11.751Z,17.30
2022-12-17T10:13:57.158Z,17.90
2022-12-17T10:16:57.899Z,13.80
2022-12-17T10:19:57.471Z,13.90
2022-12-17T10:22:42.909Z,14.00
2022-12-17T10:25:40.822Z,14.90
2022-12-17T10:28:39.488Z,13.70
2022-12-17T10:31:33.371Z,13.60
2022-12-17T10:34:19.027Z,17.10
2022-12-17T10:37:11.313Z,15.20
2022-12-17T10:39:59.311Z,13.90
2022-12-17T10:42:47.172Z,15.90
2022-12-17T10:45:47.852Z,14.50
2022-12-17T10:48:44.786Z,14.60
2022-12-17T10:51:43.737Z,15.50
2022-12-17T10:54:49.055Z,14.10
2022-12-17T10:57:56.246Z,15.50
2022-12-17T11:00:49.317Z,14.20
2022-12-17T11:03:53.917Z,14.00
2022-12-17T11:06:45.464Z,14.70
2022-12-17T11:10:09.078Z,14.40
2022-12-17T11:13:03.990Z,15.20
2022-12-17T11:16:03.986Z,15.90
2022-12-17T11:19:28.084Z,14.80
2022-12-17T11:22:19.769Z,13.20
2022-12-17T11:25:16.771Z,14.00
2022-12-17T11:28:09.125Z,14.20
2022-12-17T11:31:08.387Z,13.60
2022-12-17T11:34:03.594Z,13.30
2022-12-17T11:36:57.738Z,12.60
2022-12-17T11:40:16.408Z,12.70
2022-12-17T11:43:27.421Z,12.00
2022-12-17T11:46:35.090Z,12.30
2022-12-17T11:49:39.797Z,13.90
2022-12-17T11:52:40.698Z,13.90
2022-12-17T11:55:38.303Z,14.30
2022-12-17T11:58:32.735Z,13.00
2022-12-17T12:01:18.423Z,13.40
2022-12-17T12:04:31.939Z,11.30
2022-12-17T12:07:36.039Z,14.00
2022-12-17T12:10:29.893Z,12.50
2022-12-17T12:13:21.500Z,12.70
2022-12-17T12:16:46.443Z,13.30
2022-12-17T12:19:42.553Z,13.60
2022-12-17T12:22:44.499Z,13.70
2022-12-17T12:25:30.103Z,14.50
2022-12-17T12:28:21.529Z,14.70
2022-12-17T12:31:26.306Z,12.50
2022-12-17T12:34:47.582Z,15.60
2022-12-17T12:37:36.599Z,14.60
2022-12-17T12:40:40.479Z,15.40
2022-12-17T12:43:51.076Z,14.60
2022-12-17T12:46:50.739Z,14.20
2022-12-17T12:49:49.595Z,13.30
2022-12-17T12:52:40.945Z,13.60
2022-12-17T12:55:26.874Z,12.60
2022-12-17T12:58:18.349Z,12.30
2022-12-17T13:01:07.604Z,11.10
2022-12-17T13:04:02.364Z,10.90
2022-12-17T13:09:47.524Z,9.00
2022-12-17T13:12:26.895Z,9.20
2022-12-17T13:14:56.241Z,10.80
2022-12-17T13:17:44.179Z,9.60
2022-12-17T13:20:26.270Z,9.40
2022-12-17T13:23:13.919Z,8.50
2022-12-17T13:25:41.775Z,9.10
2022-12-17T13:28:30.413Z,8.90
2022-12-17T13:31:05.788Z,8.40
2022-12-17T13:33:49.418Z,9.60
2022-12-17T13:36:22.217Z,10.60
2022-12-17T13:39:07.750Z,10.30
2022-12-17T13:41:38.187Z,9.50
2022-12-17T13:44:19.800Z,8.80
2022-12-17T13:46:49.548Z,8.10
2022-12-17T13:49:21.500Z,9.40
2022-12-17T13:52:00.272Z,9.80
2022-12-17T13:54:27.141Z,7.80
2022-12-17T13:56:54.182Z,8.80
2022-12-17T13:59:24.855Z,8.70
2022-12-17T14:01:53.604Z,7.90
2022-12-17T14:04:24.518Z,8.50
2022-12-17T14:06:53.149Z,8.90
2022-12-17T14:09:22.593Z,8.10
2022-12-17T14:12:08.512Z,8.70
2022-12-17T14:14:46.434Z,8.30
2022-12-17T14:17:22.738Z,8.50
2022-12-17T14:19:57.949Z,7.90
2022-12-17T14:22:51.425Z,7.30
2022-12-17T14:25:21.444Z,7.40
2022-12-17T14:27:56.077Z,6.00
2022-12-17T14:30:25.314Z,7.70
2022-12-17T14:32:52.236Z,6.00
2022-12-17T14:35:24.726Z,6.60
2022-12-17T14:37:51.605Z,7.20
2022-12-17T14:40:19.930Z,6.60
2022-12-17T14:42:48.360Z,5.60
2022-12-17T14:45:15.240Z,6.00
2022-12-17T14:47:54.065Z,5.30
2022-12-17T14:50:20.968Z,6.40
2022-12-17T14:52:50.273Z,6.60
2022-12-17T14:55:55.418Z,5.10
2022-12-17T14:58:25.203Z,5.00
2022-12-17T15:01:04.555Z,4.30
2022-12-17T15:03:35.609Z,4.10
2022-12-17T15:06:05.306Z,4.80
2022-12-17T15:08:40.625Z,4.60
2022-12-17T15:11:07.881Z,4.00
2022-12-17T15:13:34.755Z,3.80
2022-12-17T15:16:01.597Z,5.10
2022-12-17T15:18:28.454Z,4.30
2022-12-17T15:20:55.208Z,4.40
2022-12-17T15:23:23.808Z,4.20
2022-12-17T15:25:52.446Z,4.10
2022-12-17T15:28:20.542Z,4.00
2022-12-17T15:30:48.614Z,5.20
2022-12-17T15:33:16.358Z,4.40
2022-12-17T15:35:43.384Z,3.50
2022-12-17T15:38:12.042Z,4.30
2022-12-17T15:40:39.239Z,4.00
2022-12-17T15:43:12.027Z,4.00
2022-12-17T15:45:47.960Z,3.40
2022-12-17T15:48:17.739Z,4.00
2022-12-17T15:50:45.085Z,3.80
2022-12-17T15:53:12.015Z,3.50
2022-12-17T15:55:39.076Z,3.50
2022-12-17T15:58:07.104Z,4.00
2022-12-17T16:00:34.644Z,3.80
2022-12-17T16:03:01.561Z,3.30
2022-12-17T16:05:29.203Z,4.50
2022-12-17T16:07:58.716Z,2.90
2022-12-17T16:10:25.536Z,2.70
2022-12-17T16:12:52.323Z,2.40
2022-12-17T16:15:19.231Z,2.70
2022-12-17T16:17:46.200Z,3.10
2022-12-17T16:20:13.237Z,2.80
2022-12-17T16:22:40.056Z,3.30
2022-12-17T16:25:07.636Z,3.30
2022-12-17T16:27:34.563Z,2.70
2022-12-17T16:30:03.089Z,2.90
2022-12-17T16:32:34.735Z,3.40
2022-12-17T16:35:04.797Z,3.00
2022-12-17T16:37:31.837Z,3.30
2022-12-17T16:40:00.432Z,3.00
2022-12-17T16:42:27.853Z,3.10
2022-12-17T16:44:54.670Z,3.40
2022-12-17T16:47:21.441Z,2.70
2022-12-17T16:49:50.163Z,3.30
2022-12-17T16:52:17.204Z,3.10
2022-12-17T16:54:44.224Z,3.60
2022-12-17T16:57:10.976Z,3.50
2022-12-17T16:59:37.771Z,4.10
2022-12-17T17:02:05.209Z,4.20
2022-12-17T17:04:32.125Z,3.90
2022-12-17T17:06:58.963Z,4.70
2022-12-17T17:09:26.132Z,3.30
2022-12-17T17:11:58.176Z,3.80
2022-12-17T17:14:25.824Z,3.90
2022-12-17T17:16:52.943Z,3.70
2022-12-17T17:19:20.091Z,4.00
2022-12-17T17:21:53.517Z,4.10
2022-12-17T17:24:26.100Z,3.90
2022-12-17T17:26:54.597Z,3.40
2022-12-17T17:29:21.807Z,4.30
2022-12-17T17:34:35.567Z,3.90
2022-12-17T17:37:02.349Z,4.50
2022-12-17T17:39:32.536Z,4.10
2022-12-17T17:42:00.185Z,3.60
2022-12-17T17:44:26.962Z,4.20
2022-12-17T17:46:53.790Z,3.70
2022-12-17T17:49:20.578Z,3.80
2022-12-17T17:54:34.266Z,3.00
2022-12-17T17:57:01.042Z,3.20
2022-12-17T17:59:33.292Z,4.00
2022-12-17T18:02:01.941Z,3.90
2022-12-17T18:04:29.313Z,3.60
2022-12-17T18:09:43.184Z,3.70
2022-12-17T18:12:28.719Z,3.80
2022-12-17T18:15:13.760Z,3.00
2022-12-17T18:17:42.087Z,3.40
2022-12-17T18:20:09.904Z,3.40
2022-12-17T18:22:37.143Z,2.40
2022-12-17T18:25:05.080Z,3.70
2022-12-17T18:27:32.243Z,3.10
2022-12-17T18:29:59.001Z,3.80
2022-12-17T18:32:25.733Z,3.10
2022-12-17T18:34:52.565Z,3.60
2022-12-17T18:37:19.417Z,3.60
2022-12-17T18:39:46.847Z,4.30
2022-12-17T18:42:32.513Z,4.20
2022-12-17T18:44:59.332Z,3.70
2022-12-17T18:47:26.571Z,3.20
2022-12-17T18:49:53.758Z,4.20
2022-12-17T18:52:22.205Z,4.70
2022-12-17T18:54:49.375Z,5.00
2022-12-17T18:57:16.334Z,4.80
2022-12-17T18:59:43.100Z,4.20
2022-12-17T19:02:11.940Z,4.50
2022-12-17T19:04:39.006Z,4.20
2022-12-17T19:07:05.774Z,4.70
2022-12-17T19:09:36.074Z,4.20
2022-12-17T19:12:05.940Z,4.60
2022-12-17T19:14:33.646Z,4.90
2022-12-17T19:17:01.180Z,4.90
2022-12-17T19:19:27.987Z,4.40
2022-12-17T19:21:55.986Z,5.40
2022-12-17T19:24:23.171Z,5.10
2022-12-17T19:26:51.032Z,4.60
2022-12-17T19:29:19.560Z,4.90
2022-12-17T19:31:46.953Z,4.80
2022-12-17T19:34:15.680Z,5.20
2022-12-17T19:36:43.152Z,6.80
2022-12-17T19:39:16.155Z,5.60
2022-12-17T19:41:43.496Z,6.90
2022-12-17T19:44:16.096Z,6.40
2022-12-17T19:46:43.737Z,6.20
2022-12-17T19:49:15.802Z,6.20
2022-12-17T19:51:43.769Z,6.10
2022-12-17T19:54:12.495Z,6.10
2022-12-17T19:56:39.574Z,6.80
2022-12-17T19:59:09.211Z,6.60
2022-12-17T20:01:39.548Z,7.80
2022-12-17T20:04:06.410Z,6.90
2022-12-17T20:06:35.004Z,6.90
2022-12-17T20:09:04.678Z,6.10
2022-12-17T20:11:35.159Z,6.10
2022-12-17T20:14:12.977Z,6.40
2022-12-17T20:16:41.380Z,5.90
2022-12-17T20:19:12.122Z,6.50
2022-12-17T20:21:39.829Z,6.20
2022-12-17T20:24:06.928Z,6.80
2022-12-17T20:26:33.978Z,8.20
2022-12-17T20:29:00.754Z,7.50
2022-12-17T20:31:27.941Z,7.20
2022-12-17T20:33:54.939Z,6.50
2022-12-17T20:36:22.696Z,7.30
2022-12-17T20:38:49.523Z,8.80
2022-12-17T20:41:19.192Z,8.00
2022-12-17T20:43:47.019Z,7.80
2022-12-17T20:46:14.208Z,8.80
2022-12-17T20:48:42.746Z,8.90
2022-12-17T20:51:12.390Z,8.20
2022-12-17T20:53:39.553Z,8.90
2022-12-17T20:56:09.906Z,8.90
2022-12-17T20:58:38.756Z,8.40
2022-12-17T21:01:18.066Z,9.10
2022-12-17T21:03:45.653Z,9.30
2022-12-17T21:06:19.764Z,9.30
2022-12-17T21:11:19.869Z,9.80
2022-12-17T21:13:47.079Z,9.00
2022-12-17T21:16:23.328Z,8.90
2022-12-17T21:18:50.153Z,10.10
2022-12-17T21:21:22.186Z,9.60
2022-12-17T21:23:50.373Z,9.30
2022-12-17T21:26:22.265Z,9.30
2022-12-17T21:28:52.956Z,8.80
2022-12-17T21:31:23.272Z,10.10
2022-12-17T21:33:52.055Z,9.70
2022-12-17T21:36:21.084Z,17.10
2022-12-17T21:38:49.286Z,12.50
2022-12-17T21:41:25.502Z,14.20
2022-12-17T21:43:57.937Z,12.30
2022-12-17T21:46:26.921Z,15.70
2022-12-17T21:48:55.596Z,13.70
2022-12-17T21:51:22.968Z,14.90
2022-12-17T21:53:55.869Z,10.40
2022-12-17T21:56:23.382Z,12.50
2022-12-17T21:58:56.363Z,12.70
2022-12-17T22:01:26.225Z,11.60
2022-12-17T22:03:57.064Z,20.80
2022-12-17T22:06:31.330Z,10.70
2022-12-17T22:09:07.484Z,10.40
2022-12-17T22:11:40.867Z,9.50
2022-12-17T22:14:13.983Z,11.10
2022-12-17T22:16:47.841Z,10.20
2022-12-17T22:19:22.289Z,10.30
2022-12-17T22:21:51.689Z,9.90
2022-12-17T22:24:25.669Z,10.70
2022-12-17T22:26:59.486Z,10.40
2022-12-17T22:29:46.403Z,9.80
2022-12-17T22:32:34.680Z,10.30
2022-12-17T22:36:13.499Z,10.80
2022-12-17T22:40:17.351Z,9.90
2022-12-17T22:44:02.761Z,8.80
2022-12-17T22:44:42.466Z,9.40
2022-12-17T22:46:18.732Z,10.90
2022-12-17T22:48:45.955Z,12.10
2022-12-17T22:51:16.684Z,11.20
2022-12-17T22:53:53.257Z,8.70
2022-12-17T22:56:27.029Z,10.90
2022-12-17T22:59:14.913Z,9.90
2022-12-17T23:01:42.304Z,11.70
2022-12-17T23:04:12.261Z,10.60
2022-12-17T23:06:39.956Z,10.60
2022-12-17T23:09:06.783Z,11.30
2022-12-17T23:11:33.676Z,10.00
2022-12-17T23:14:00.486Z,10.40
2022-12-17T23:16:30.437Z,11.00
2022-12-17T23:19:00.812Z,12.50
2022-12-17T23:21:27.882Z,11.00
2022-12-17T23:23:55.929Z,12.00
2022-12-17T23:26:26.801Z,13.00
2022-12-17T23:28:57.804Z,11.30
2022-12-17T23:31:26.695Z,12.20
2022-12-17T23:33:54.325Z,11.90
2022-12-17T23:36:23.437Z,13.00
2022-12-17T23:38:52.504Z,11.50
2022-12-17T23:41:25.363Z,10.10
2022-12-17T23:43:53.458Z,11.60
2022-12-17T23:46:21.787Z,13.40
2022-12-17T23:48:49.207Z,12.20
2022-12-17T23:51:18.801Z,11.40
2022-12-17T23:53:46.877Z,12.50
2022-12-17T23:56:19.880Z,11.80
2022-12-17T23:58:47.572Z,10.20
